Language selection

Weather shortcuts

East Coast - north of Cape St. Francis: Past 24 Hour Conditions

 

West Chedabucto Bay - 44489

08:00 PM ADT 24 June 2024Buoy position: 45.49N 61.14W
Disclaimer

This table is a summary of hourly weather conditions for the past 24 hours.
Please note that these observations might not always be representative of weather conditions over their associated marine area.

Date / Time
(ADT)
Wind(knots) Wave height(m) Wave period(s) Pressure(kPa) Air tempC) Water tempC)
24 June 2024
20:00 WSW 12 gusts 14 0.35 5.0 100.3 14 12
19:00 WSW 10 gusts 11 0.34 5.5 100.2 14 12
18:00 SW 9 gusts 10 0.31 6.0 100.2 14 12
17:00 WSW 8 gusts 10 0.34 4.8 100.2 15 12
16:00 WSW 8 gusts 9 0.35 3.4 100.2 14 12
15:00 SW 10 gusts 12 0.39 3.0 100.2 14 12
14:00 WSW 9 gusts 12 0.37 3.4 100.1 14 12
13:00 W 17 gusts 22 0.36 3.6 100.1 15 12
12:00 W 9 gusts 11 0.42 3.5 100.1 15 12
11:00 NW 4 gusts 8 0.54 3.4 100.0 14 12
10:00 WSW 19 gusts 23 0.59 3.3 99.9 14 12
9:00 WSW 19 gusts 22 0.66 3.4 99.9 14 12
8:00 WSW 19 gusts 22 0.64 3.4 99.9 15 12
7:00 WSW 15 gusts 17 0.61 3.4 100.0 14 12
6:00 WSW 10 gusts 12 0.63 3.5 100.0 14 12
5:00 WSW 19 gusts 24 0.75 3.6 100.0 15 12
4:00 WSW 19 gusts 23 0.87 3.7 100.0 15 11
3:00 WSW 21 gusts 24 1.03 4.0 100.1 15 11
2:00 WSW 23 gusts 26 0.88 3.6 100.1 15 11
1:00 WSW 19 gusts 23 0.71 3.0 100.2 15 12
0:00 WSW 19 gusts 23 0.67 3.0 100.3 14 12
23 June 2024
23:00 SW 21 gusts 26 0.65 3.0 100.4 14 12
22:00 SW 12 gusts 16 0.41 2.8 100.6 14 12
21:00 S 9 gusts 10 0.33 2.5 100.7 13 12
20:00 S 13 gusts 15 0.27 2.3 100.8 13 12

Zoom-in to make a selection

Map of Atlantic - Newfoundland marine weather areas Banquereau - 44139 East Chedabucto Bay – 44488 West Chedabucto Bay – 44489 Blanc-Sablon Airport Cap Whittle Chevery Natashquan Airport Heath Point Îles de la Madeleine Airport Miscou Island Eskasoni (First Nations) Grand Étang Ingonish Beach North Mountain St.Paul Island J.A. Douglas McCurdy Sydney Airport Charlottetown Airport East Point North Cape Argentia Berry Hill Bonavista Burgeo Cape Race Corner Brook Daniel's Harbour Englee Ferolle Point La Scie Port aux Basques Sagona Island St. Anthony Airport St. John's Int'l Airport St. Lawrence Stephenville Airport Twillingate Winterland Branch Hill Wreckhouse Grates Cove Pool's Island Marticot Island Long Pond Cartwright Airport Mary's Harbour
Legend:
buoy Buoy
land station Land Station

Atlantic - Newfoundland Area

Another Region

Features

New Predicting and Alerting Coastal Flooding Program

Find out about coastal flooding coverage, forecasts and warnings in your region

Date modified: